createdAt,value
2022-10-30T00:02:25.657Z,1.00
2022-10-30T00:05:16.051Z,1.00
2022-10-30T00:08:06.078Z,1.30
2022-10-30T00:10:56.531Z,1.10
2022-10-30T00:13:47.163Z,1.20
2022-10-30T00:16:37.490Z,1.30
2022-10-30T00:19:28.358Z,1.20
2022-10-30T00:22:18.695Z,1.00
2022-10-30T00:25:10.181Z,1.30
2022-10-30T00:28:00.749Z,1.40
2022-10-30T00:30:50.824Z,1.40
2022-10-30T00:33:41.329Z,1.20
2022-10-30T00:36:31.661Z,1.10
2022-10-30T00:39:22.524Z,1.00
2022-10-30T00:42:16.228Z,1.20
2022-10-30T00:45:07.792Z,1.50
2022-10-30T00:48:02.910Z,1.20
2022-10-30T00:50:54.724Z,1.60
2022-10-30T00:53:46.223Z,1.20
2022-10-30T00:56:37.720Z,1.30
2022-10-30T00:59:31.867Z,1.20
2022-10-30T01:02:24.129Z,1.20
2022-10-30T01:05:18.194Z,1.30
2022-10-30T01:08:09.263Z,1.30
2022-10-30T01:11:01.527Z,1.50
2022-10-30T01:13:53.900Z,1.60
2022-10-30T01:16:58.218Z,1.20
2022-10-30T01:23:08.459Z,1.70
2022-10-30T01:26:09.115Z,1.20
2022-10-30T01:29:19.809Z,1.20
2022-10-30T01:32:28.496Z,1.40
2022-10-30T01:35:25.362Z,1.20
2022-10-30T01:38:24.675Z,1.30
2022-10-30T01:41:16.740Z,1.20
2022-10-30T01:44:15.673Z,1.10
2022-10-30T01:47:19.826Z,1.30
2022-10-30T01:50:22.962Z,1.30
2022-10-30T01:53:23.862Z,1.20
2022-10-30T01:56:23.178Z,1.20
2022-10-30T01:59:19.760Z,1.20
2022-10-30T02:02:10.429Z,1.30
2022-10-30T02:05:01.465Z,1.20
2022-10-30T02:07:51.406Z,1.20
2022-10-30T02:10:44.437Z,1.20
2022-10-30T02:13:35.789Z,1.40
2022-10-30T02:16:25.819Z,1.30
2022-10-30T02:19:15.967Z,1.30
2022-10-30T02:22:07.529Z,1.30
2022-10-30T02:24:58.105Z,1.40
2022-10-30T02:27:48.515Z,1.30
2022-10-30T02:30:39.739Z,1.30
2022-10-30T02:33:30.190Z,1.20
2022-10-30T02:36:20.885Z,1.10
2022-10-30T02:39:11.719Z,1.30
2022-10-30T02:42:02.656Z,1.30
2022-10-30T02:44:52.630Z,1.50
2022-10-30T02:47:42.702Z,1.30
2022-10-30T02:50:33.257Z,1.40
2022-10-30T02:53:23.092Z,1.10
2022-10-30T02:56:15.436Z,1.60
2022-10-30T02:59:06.456Z,1.50
2022-10-30T03:01:56.510Z,1.60
2022-10-30T03:04:47.128Z,1.20
2022-10-30T03:07:37.013Z,1.60
2022-10-30T03:10:27.193Z,1.50
2022-10-30T03:13:17.188Z,1.50
2022-10-30T03:16:09.755Z,1.40
2022-10-30T03:19:00.734Z,1.40
2022-10-30T03:21:50.925Z,1.60
2022-10-30T03:24:40.982Z,1.30
2022-10-30T03:27:31.754Z,1.40
2022-10-30T03:30:22.537Z,1.20
2022-10-30T03:33:14.019Z,1.30
2022-10-30T03:36:05.653Z,1.20
2022-10-30T03:38:56.668Z,1.30
2022-10-30T03:41:48.176Z,1.30
2022-10-30T03:44:38.788Z,1.20
2022-10-30T03:47:29.589Z,1.40
2022-10-30T03:50:20.898Z,1.30
2022-10-30T03:53:11.451Z,1.20
2022-10-30T03:56:04.077Z,1.60
2022-10-30T03:59:02.476Z,1.50
2022-10-30T04:01:54.143Z,1.40
2022-10-30T04:04:45.893Z,1.40
2022-10-30T04:07:37.377Z,1.50
2022-10-30T04:10:28.364Z,1.50
2022-10-30T04:13:20.392Z,1.50
2022-10-30T04:16:12.669Z,1.30
2022-10-30T04:19:02.869Z,1.50
2022-10-30T04:21:53.328Z,1.50
2022-10-30T04:24:43.420Z,1.40
2022-10-30T04:27:33.397Z,1.40
2022-10-30T04:30:25.174Z,1.30
2022-10-30T04:33:16.230Z,1.50
2022-10-30T04:36:07.627Z,1.20
2022-10-30T04:38:58.446Z,1.40
2022-10-30T04:41:51.663Z,1.30
2022-10-30T04:44:46.596Z,1.70
2022-10-30T04:47:36.855Z,1.40
2022-10-30T04:50:28.642Z,1.70
2022-10-30T04:53:21.144Z,1.40
2022-10-30T04:56:13.035Z,1.50
2022-10-30T04:59:04.699Z,1.40
2022-10-30T05:01:55.594Z,1.40
2022-10-30T05:04:45.909Z,1.40
2022-10-30T05:07:36.168Z,1.40
2022-10-30T05:10:26.904Z,1.40
2022-10-30T05:13:17.283Z,1.60
2022-10-30T05:16:08.897Z,1.60
2022-10-30T05:18:59.171Z,1.40
2022-10-30T05:21:49.262Z,1.40
2022-10-30T05:24:39.723Z,1.60
2022-10-30T05:27:30.507Z,1.40
2022-10-30T05:30:20.752Z,1.70
2022-10-30T05:33:16.030Z,1.40
2022-10-30T05:36:07.644Z,1.40
2022-10-30T05:38:57.734Z,1.30
2022-10-30T05:42:00.367Z,1.40
2022-10-30T05:45:02.275Z,1.30
2022-10-30T05:48:00.656Z,1.60
2022-10-30T05:50:56.558Z,1.50
2022-10-30T05:53:52.360Z,1.40
2022-10-30T05:56:44.362Z,1.30
2022-10-30T05:59:35.880Z,1.70
2022-10-30T06:02:26.868Z,1.50
2022-10-30T06:05:18.491Z,1.60
2022-10-30T06:08:10.587Z,1.50
2022-10-30T06:11:00.855Z,1.40
2022-10-30T06:13:59.960Z,1.50
2022-10-30T06:17:01.262Z,1.50
2022-10-30T06:20:08.560Z,1.40
2022-10-30T06:23:31.036Z,1.70
2022-10-30T06:26:32.420Z,1.70
2022-10-30T06:29:29.031Z,1.50
2022-10-30T06:32:19.232Z,1.40
2022-10-30T06:35:11.181Z,1.80
2022-10-30T06:38:01.363Z,1.50
2022-10-30T06:40:53.326Z,1.30
2022-10-30T06:43:47.093Z,1.30
2022-10-30T06:46:43.006Z,1.30
2022-10-30T06:49:33.594Z,1.50
2022-10-30T06:52:24.266Z,1.50
2022-10-30T06:55:17.155Z,2.10
2022-10-30T06:58:28.150Z,3.50
2022-10-30T07:01:27.041Z,4.30
2022-10-30T07:04:25.760Z,3.00
2022-10-30T07:07:20.060Z,2.40
2022-10-30T07:10:11.811Z,2.10
2022-10-30T07:13:20.819Z,1.80
2022-10-30T07:16:18.106Z,1.90
2022-10-30T07:19:11.222Z,1.60
2022-10-30T07:22:02.068Z,1.50
2022-10-30T07:24:53.577Z,1.50
2022-10-30T07:28:04.056Z,1.50
2022-10-30T07:31:04.053Z,1.40
2022-10-30T07:34:13.947Z,1.60
2022-10-30T07:37:24.663Z,1.70
2022-10-30T07:40:29.441Z,1.80
2022-10-30T07:43:29.891Z,2.00
2022-10-30T07:46:39.288Z,1.90
2022-10-30T07:49:51.029Z,5.50
2022-10-30T07:52:42.828Z,8.70
2022-10-30T07:55:33.880Z,5.90
2022-10-30T07:58:50.932Z,4.20
2022-10-30T08:02:01.808Z,3.40
2022-10-30T08:04:58.619Z,3.20
2022-10-30T08:07:58.571Z,2.80
2022-10-30T08:10:49.364Z,4.20
2022-10-30T08:13:41.408Z,2.90
2022-10-30T08:16:32.640Z,3.40
2022-10-30T08:19:23.412Z,2.80
2022-10-30T08:22:14.127Z,3.10
2022-10-30T08:25:05.767Z,2.70
2022-10-30T08:27:58.175Z,3.20
2022-10-30T08:30:49.725Z,3.00
2022-10-30T08:33:40.467Z,3.10
2022-10-30T08:36:53.731Z,2.80
2022-10-30T08:39:44.192Z,3.10
2022-10-30T08:42:55.227Z,3.30
2022-10-30T08:45:46.107Z,3.90
2022-10-30T08:48:37.861Z,3.20
2022-10-30T08:51:28.048Z,6.90
2022-10-30T08:54:18.956Z,3.10
2022-10-30T08:57:09.368Z,3.20
2022-10-30T09:00:00.099Z,3.10
2022-10-30T09:03:17.260Z,3.20
2022-10-30T09:06:28.115Z,2.90
2022-10-30T09:09:38.907Z,3.20
2022-10-30T09:12:29.537Z,3.20
2022-10-30T09:15:19.988Z,3.30
2022-10-30T09:18:16.674Z,3.00
2022-10-30T09:21:07.235Z,3.40
2022-10-30T09:24:02.242Z,3.60
2022-10-30T09:26:59.403Z,3.70
2022-10-30T09:29:50.546Z,3.40
2022-10-30T09:32:51.158Z,3.40
2022-10-30T09:35:47.132Z,3.50
2022-10-30T09:38:38.034Z,3.80
2022-10-30T09:41:47.141Z,3.90
2022-10-30T09:45:15.194Z,4.00
2022-10-30T09:48:33.514Z,3.70
2022-10-30T09:51:46.295Z,4.40
2022-10-30T09:54:47.479Z,4.40
2022-10-30T09:57:46.478Z,3.90
2022-10-30T10:00:40.049Z,3.90
2022-10-30T10:07:24.462Z,3.70
2022-10-30T10:10:23.958Z,4.00
2022-10-30T10:13:30.709Z,3.80
2022-10-30T10:16:22.365Z,3.70
2022-10-30T10:19:21.546Z,3.90
2022-10-30T10:22:21.266Z,3.70
2022-10-30T10:25:16.848Z,3.90
2022-10-30T10:28:17.213Z,4.40
2022-10-30T10:31:18.042Z,3.80
2022-10-30T10:34:24.440Z,4.50
2022-10-30T10:37:24.847Z,4.30
2022-10-30T10:40:30.368Z,3.80
2022-10-30T10:43:32.957Z,3.90
2022-10-30T10:46:36.024Z,7.20
2022-10-30T10:49:40.255Z,10.50
2022-10-30T10:52:40.033Z,7.90
2022-10-30T10:55:34.247Z,6.40
2022-10-30T10:58:31.616Z,4.70
2022-10-30T11:01:29.296Z,4.50
2022-10-30T11:04:28.481Z,4.10
2022-10-30T11:07:22.783Z,4.10
2022-10-30T11:10:18.354Z,4.20
2022-10-30T11:13:08.416Z,4.00
2022-10-30T11:16:05.829Z,4.10
2022-10-30T11:18:59.740Z,4.10
2022-10-30T11:21:54.684Z,4.30
2022-10-30T11:24:44.900Z,4.00
2022-10-30T11:27:34.673Z,4.10
2022-10-30T11:30:28.693Z,4.40
2022-10-30T11:33:31.789Z,4.40
2022-10-30T11:36:27.092Z,3.90
2022-10-30T11:39:21.688Z,3.90
2022-10-30T11:42:20.241Z,4.30
2022-10-30T11:45:19.626Z,4.40
2022-10-30T11:48:20.312Z,4.30
2022-10-30T11:51:12.218Z,4.10
2022-10-30T11:54:03.384Z,5.00
2022-10-30T11:56:54.473Z,4.40
2022-10-30T11:59:48.847Z,4.60
2022-10-30T12:02:47.734Z,4.50
2022-10-30T12:05:43.606Z,4.40
2022-10-30T12:08:35.625Z,4.30
2022-10-30T12:11:32.020Z,4.50
2022-10-30T12:14:23.879Z,4.90
2022-10-30T12:17:18.036Z,4.50
2022-10-30T12:20:15.193Z,4.00
2022-10-30T12:23:14.116Z,4.00
2022-10-30T12:26:11.098Z,4.30
2022-10-30T12:29:05.493Z,4.70
2022-10-30T12:32:00.593Z,6.50
2022-10-30T12:34:58.824Z,4.50
2022-10-30T12:37:53.844Z,4.20
2022-10-30T12:40:51.976Z,4.60
2022-10-30T12:43:43.890Z,4.30
2022-10-30T12:46:39.788Z,4.50
2022-10-30T12:49:38.709Z,4.50
2022-10-30T12:52:35.512Z,5.00
2022-10-30T12:55:31.564Z,5.50
2022-10-30T12:58:32.213Z,4.50
2022-10-30T13:01:29.455Z,4.50
2022-10-30T13:04:23.344Z,4.10
2022-10-30T13:07:21.214Z,5.20
2022-10-30T13:10:27.876Z,4.40
2022-10-30T13:13:22.145Z,4.60
2022-10-30T13:16:17.893Z,4.70
2022-10-30T13:19:11.458Z,4.50
2022-10-30T13:22:08.420Z,5.70
2022-10-30T13:25:05.802Z,4.70
2022-10-30T13:28:02.873Z,5.00
2022-10-30T13:31:02.768Z,4.60
2022-10-30T13:34:01.198Z,4.00
2022-10-30T13:36:56.490Z,4.30
2022-10-30T13:39:55.996Z,4.40
2022-10-30T13:43:00.557Z,4.30
2022-10-30T13:46:11.528Z,4.60
2022-10-30T13:49:16.387Z,4.60
2022-10-30T13:52:12.096Z,3.90
2022-10-30T13:55:08.526Z,6.00
2022-10-30T13:58:03.444Z,3.80
2022-10-30T14:01:09.541Z,4.40
2022-10-30T14:04:07.170Z,4.10
2022-10-30T14:07:09.890Z,4.10
2022-10-30T14:10:04.258Z,3.40
2022-10-30T14:13:08.991Z,4.30
2022-10-30T14:16:03.315Z,4.40
2022-10-30T14:19:04.970Z,4.10
2022-10-30T14:21:57.077Z,3.80
2022-10-30T14:24:48.143Z,4.40
2022-10-30T14:27:38.656Z,4.00
2022-10-30T14:30:29.928Z,3.60
2022-10-30T14:33:39.229Z,3.60
2022-10-30T14:36:49.445Z,3.80
2022-10-30T14:39:43.438Z,4.10
2022-10-30T14:42:44.492Z,3.90
2022-10-30T14:45:44.985Z,3.50
2022-10-30T14:48:47.891Z,4.20
2022-10-30T14:51:43.610Z,3.40
2022-10-30T14:54:44.270Z,4.10
2022-10-30T14:57:52.272Z,4.50
2022-10-30T15:00:44.136Z,4.30
2022-10-30T15:03:52.222Z,4.50
2022-10-30T15:06:54.188Z,4.80
2022-10-30T15:09:57.841Z,4.20
2022-10-30T15:13:20.750Z,3.90
2022-10-30T15:16:15.765Z,3.60
2022-10-30T15:19:09.376Z,4.30
2022-10-30T15:21:59.456Z,3.60
2022-10-30T15:24:51.329Z,4.40
2022-10-30T15:27:44.323Z,4.30
2022-10-30T15:30:34.383Z,4.30
2022-10-30T15:33:25.115Z,4.90
2022-10-30T15:36:21.951Z,4.30
2022-10-30T15:39:14.519Z,4.70
2022-10-30T15:42:06.501Z,4.30
2022-10-30T15:44:57.325Z,4.20
2022-10-30T15:48:00.032Z,4.90
2022-10-30T15:51:01.448Z,4.80
2022-10-30T15:53:55.073Z,4.90
2022-10-30T15:57:26.980Z,4.70
2022-10-30T16:00:06.163Z,4.70
2022-10-30T16:03:05.357Z,4.90
2022-10-30T16:06:07.168Z,4.30
2022-10-30T16:08:57.771Z,5.10
2022-10-30T16:11:49.619Z,4.80
2022-10-30T16:14:39.511Z,5.00
2022-10-30T16:17:30.156Z,5.20
2022-10-30T16:20:20.522Z,4.20
2022-10-30T16:23:11.034Z,4.90
2022-10-30T16:26:01.689Z,4.00
2022-10-30T16:28:51.731Z,4.70
2022-10-30T16:31:44.564Z,4.30
2022-10-30T16:34:36.046Z,4.30
2022-10-30T16:37:29.520Z,4.90
2022-10-30T16:40:23.857Z,4.40
2022-10-30T16:43:29.232Z,5.60
2022-10-30T16:46:35.622Z,6.50
2022-10-30T16:49:29.471Z,8.60
2022-10-30T16:52:22.259Z,10.90
2022-10-30T16:55:21.280Z,11.50
2022-10-30T16:58:16.619Z,11.00
2022-10-30T17:01:08.244Z,10.50
2022-10-30T17:03:59.255Z,10.50
2022-10-30T17:06:50.867Z,9.40
2022-10-30T17:09:41.455Z,10.90
2022-10-30T17:12:32.748Z,9.90
2022-10-30T17:15:25.021Z,10.20
2022-10-30T17:18:20.787Z,9.10
2022-10-30T17:21:13.785Z,8.60
2022-10-30T17:24:04.019Z,11.30
2022-10-30T17:27:00.944Z,14.30
2022-10-30T17:29:51.154Z,14.90
2022-10-30T17:32:48.987Z,13.10
2022-10-30T17:35:39.534Z,9.90
2022-10-30T17:38:30.098Z,7.90
2022-10-30T17:41:20.521Z,7.30
2022-10-30T17:44:20.699Z,5.90
2022-10-30T17:47:18.028Z,5.00
2022-10-30T17:50:09.743Z,4.90
2022-10-30T17:53:00.085Z,5.10
2022-10-30T17:55:57.905Z,4.30
2022-10-30T17:58:48.640Z,4.90
2022-10-30T18:01:39.425Z,4.50
2022-10-30T18:04:30.056Z,4.40
2022-10-30T18:07:20.634Z,4.20
2022-10-30T18:10:14.591Z,4.30
2022-10-30T18:13:04.800Z,4.30
2022-10-30T18:15:59.992Z,4.10
2022-10-30T18:18:51.817Z,3.50
2022-10-30T18:21:42.608Z,3.60
2022-10-30T18:24:33.554Z,3.60
2022-10-30T18:27:23.753Z,4.60
2022-10-30T18:30:16.766Z,3.80
2022-10-30T18:33:07.263Z,3.70
2022-10-30T18:35:58.584Z,3.50
2022-10-30T18:38:49.458Z,3.70
2022-10-30T18:41:42.290Z,3.60
2022-10-30T18:44:32.159Z,3.10
2022-10-30T18:47:22.466Z,3.10
2022-10-30T18:50:13.269Z,3.10
2022-10-30T18:53:05.774Z,3.20
2022-10-30T18:55:55.701Z,3.60
2022-10-30T18:58:45.968Z,3.30
2022-10-30T19:01:36.436Z,3.50
2022-10-30T19:04:27.023Z,3.80
2022-10-30T19:07:17.503Z,3.60
2022-10-30T19:10:08.966Z,3.70
2022-10-30T19:13:12.264Z,3.50
2022-10-30T19:16:02.873Z,3.40
2022-10-30T19:18:53.266Z,3.60
2022-10-30T19:21:43.346Z,4.00
2022-10-30T19:24:33.031Z,3.40
2022-10-30T19:27:24.369Z,3.30
2022-10-30T19:30:16.403Z,3.50
2022-10-30T19:33:07.358Z,3.50
2022-10-30T19:36:01.191Z,3.10
2022-10-30T19:38:51.146Z,3.20
2022-10-30T19:41:42.331Z,3.20
2022-10-30T19:44:32.554Z,3.40
2022-10-30T19:47:22.437Z,3.30
2022-10-30T19:50:28.268Z,3.40
2022-10-30T19:53:18.784Z,2.90
2022-10-30T19:56:10.720Z,2.70
2022-10-30T19:59:00.804Z,3.10
2022-10-30T20:01:50.945Z,3.40
2022-10-30T20:04:41.182Z,3.50
2022-10-30T20:07:30.962Z,3.50
2022-10-30T20:10:22.898Z,3.40
2022-10-30T20:13:13.409Z,3.40
2022-10-30T20:16:05.282Z,3.50
2022-10-30T20:18:55.477Z,3.80
2022-10-30T20:21:45.152Z,8.70
2022-10-30T20:24:35.214Z,5.30
2022-10-30T20:27:26.692Z,3.40
2022-10-30T20:30:20.238Z,3.20
2022-10-30T20:33:14.800Z,3.00
2022-10-30T20:36:05.965Z,3.30
2022-10-30T20:38:56.100Z,3.00
2022-10-30T20:41:46.139Z,3.00
2022-10-30T20:44:36.494Z,2.70
2022-10-30T20:47:26.628Z,2.40
2022-10-30T20:50:17.732Z,2.50
2022-10-30T20:53:07.966Z,2.50
2022-10-30T20:55:58.179Z,2.80
2022-10-30T20:58:47.847Z,2.50
2022-10-30T21:01:38.021Z,2.50
2022-10-30T21:04:28.171Z,2.20
2022-10-30T21:07:18.454Z,2.90
2022-10-30T21:10:09.992Z,2.30
2022-10-30T21:13:02.246Z,2.70
2022-10-30T21:15:55.375Z,2.60
2022-10-30T21:18:45.721Z,2.70
2022-10-30T21:21:35.880Z,5.60
2022-10-30T21:24:26.454Z,5.80
2022-10-30T21:27:16.756Z,3.80
2022-10-30T21:30:08.048Z,3.40
2022-10-30T21:32:59.604Z,3.10
2022-10-30T21:35:49.983Z,3.40
2022-10-30T21:38:41.579Z,3.40
2022-10-30T21:41:31.773Z,3.30
2022-10-30T21:44:22.154Z,3.50
2022-10-30T21:47:12.582Z,3.00
2022-10-30T21:50:06.344Z,3.30
2022-10-30T21:52:59.055Z,3.00
2022-10-30T21:55:49.453Z,3.20
2022-10-30T21:58:40.001Z,2.90
2022-10-30T22:01:32.287Z,3.50
2022-10-30T22:04:22.949Z,3.10
2022-10-30T22:07:12.914Z,3.10
2022-10-30T22:10:03.780Z,3.40
2022-10-30T22:12:54.527Z,3.40
2022-10-30T22:15:45.221Z,2.90
2022-10-30T22:18:36.040Z,2.80
2022-10-30T22:21:26.640Z,2.30
2022-10-30T22:24:17.447Z,2.40
2022-10-30T22:27:08.312Z,2.10
2022-10-30T22:29:58.330Z,2.50
2022-10-30T22:32:48.883Z,2.40
2022-10-30T22:35:41.921Z,2.40
2022-10-30T22:38:32.127Z,2.50
2022-10-30T22:41:24.712Z,2.80
2022-10-30T22:44:18.659Z,2.20
2022-10-30T22:47:09.083Z,2.50
2022-10-30T22:49:58.658Z,3.10
2022-10-30T22:52:48.853Z,2.60
2022-10-30T22:55:38.865Z,2.50
2022-10-30T22:58:31.872Z,2.80
2022-10-30T23:01:25.424Z,2.50
2022-10-30T23:04:16.673Z,2.90
2022-10-30T23:07:06.994Z,2.50
2022-10-30T23:09:57.109Z,2.60
2022-10-30T23:12:47.649Z,2.60
2022-10-30T23:15:41.634Z,2.50
2022-10-30T23:18:31.995Z,2.70
2022-10-30T23:21:26.633Z,2.50
2022-10-30T23:24:17.012Z,2.60
2022-10-30T23:27:07.274Z,2.60
2022-10-30T23:29:57.383Z,2.50
2022-10-30T23:32:50.455Z,2.50
2022-10-30T23:35:40.408Z,2.30
2022-10-30T23:38:31.587Z,2.20
2022-10-30T23:41:22.149Z,2.60
2022-10-30T23:44:15.809Z,2.30
2022-10-30T23:47:06.620Z,2.50
2022-10-30T23:49:56.855Z,2.20
2022-10-30T23:52:46.951Z,2.40
2022-10-30T23:55:37.821Z,2.50
2022-10-30T23:58:28.401Z,2.70
